• Join FlightAware (Why Join?)
  • Login
  • US Flag 
05:42PM EDT


 

Airport Tracker/Info


-or-


 

Live Flight TrackerFlight Track Log ✈ UAL6285 ✈ 09-Jul-2013 ✈ KMFR - KDEN

Flight Track Log - Related Links

Times and Time Zones

All times are in EDT time to prevent confusion due to time zone crossing. See the UAL6285 flight status page for this flight to view local times or setup timezone preferences in your user account.

Time Position Orientation Groundspeed Altitude Reporting Facility
EDT Latitude Longitude Course Direction KTS MPH feet Rate Location/Type
08:58AM 42.3894 -122.8797 101° East 143 165 1,800  Level Seattle Center
08:59AM 42.4389 -122.9008 343° North 182 209 3,700 1,860 Climbing Seattle Center
09:00AM 42.4897 -122.9206 344° North 206 237 5,600 1,980 Climbing Seattle Center
09:01AM 42.2396 -122.2959 124° Southeast  Level FlightAware Approximate
09:01AM 42.5494 -122.9453 343° North 226 260 7,800  Level Seattle Center
09:02AM 42.2144 -122.1363 103° East  Level FlightAware Approximate
09:02AM 42.5961 -122.8833 44° Northeast 254 292 9,500  Level Seattle Center
09:03AM 42.1894 -121.9754 101° East  Level FlightAware Approximate
09:03AM 42.5950 -122.7811 91° East 275 316 11,000  Level Seattle Center
09:04AM 42.5908 -122.6661 93° East 303 349 12,500 1,620 Climbing Seattle Center
09:05AM 42.5867 -122.5467 93° East 317 365 14,300 1,620 Climbing Seattle Center
09:06AM 42.5839 -122.4233 92° East 325 374 15,800 1,440 Climbing Seattle Center
09:07AM 42.5806 -122.2978 92° East 332 382 17,300 1,320 Climbing Seattle Center
09:08AM 42.5761 -122.1689 93° East 339 390 18,500 1,140 Climbing Seattle Center
09:09AM 42.5728 -122.0378 92° East 344 396 19,700 1,080 Climbing Seattle Center
09:10AM 42.5678 -121.9008 93° East 357 411 20,700 960 Climbing Seattle Center
09:11AM 42.5644 -121.7608 92° East 368 423 21,700 1,140 Climbing Seattle Center
09:12AM 42.5594 -121.5897 92° East 376 433 23,000 1,080 Climbing Seattle Center
09:13AM 42.5544 -121.4450 93° East 382 440 23,900 900 Climbing Seattle Center
09:14AM 42.5500 -121.2981 92° East 388 447 24,900 840 Climbing Seattle Center
09:15AM 42.5447 -121.1506 93° East 392 451 25,700 720 Climbing Seattle Center
09:16AM 42.5394 -120.9992 93° East 398 458 26,400 660 Climbing Seattle Center
09:17AM 42.5342 -120.8461 93° East 406 467 27,100 660 Climbing Seattle Center
09:18AM 42.5272 -120.6911 93° East 410 472 27,800 660 Climbing Seattle Center
09:19AM 42.5208 -120.5361 93° East 413 475 28,500 660 Climbing Seattle Center
09:20AM 42.5139 -120.3775 93° East 419 482 29,200 660 Climbing Seattle Center
09:21AM 42.5083 -120.2214 93° East 417 480 29,900 600 Climbing Seattle Center
09:22AM 42.5014 -120.0653 93° East 416 479 30,500 480 Climbing Seattle Center
09:23AM 42.4953 -119.9050 93° East 425 489 30,900 360 Climbing Seattle Center
09:24AM 42.4875 -119.7450 94° East 427 491 31,300 360 Climbing Seattle Center
09:25AM 42.4769 -119.5797 95° East 438 504 31,700 360 Climbing Seattle Center
09:26AM 42.4689 -119.4169 94° East 437 503 32,100 360 Climbing Seattle Center
09:27AM 42.4614 -119.2519 93° East 439 505 32,500 360 Climbing Seattle Center
09:28AM 42.4561 -119.1108 93° East 439 505 32,800 240 Climbing Salt Lake Center
09:29AM 42.4475 -118.9458 94° East 441 507 33,000 60 Climbing Salt Lake Center
09:30AM 42.4358 -118.7481 95° East 442 509 33,000  Level Salt Lake Center
09:31AM 42.4275 -118.6025 94° East 436 502 33,000  Level Salt Lake Center
09:32AM 42.4167 -118.4186 95° East 439 505 33,000  Level Salt Lake Center
09:33AM 42.4069 -118.2628 95° East 436 502 33,000  Level Salt Lake Center
09:34AM 42.3958 -118.0836 95° East 452 520 33,000  Level Salt Lake Center
09:35AM 42.3856 -117.9261 95° East 441 507 33,000  Level Salt Lake Center
09:36AM 42.3739 -117.7403 95° East 444 511 33,000  Level Salt Lake Center
09:37AM 42.3628 -117.5806 95° East 447 514 33,000  Level Salt Lake Center
09:38AM 42.3500 -117.3931 95° East 449 517 33,000  Level Salt Lake Center
09:39AM 42.3392 -117.2306 95° East 454 522 33,000  Level Salt Lake Center
09:40AM 42.3275 -117.0703 96° East 450 518 33,000  Level Salt Lake Center
09:41AM 42.3139 -116.8814 96° East 453 521 33,000  Level Salt Lake Center
09:42AM 42.3025 -116.7197 95° East 453 521 33,000  Level Salt Lake Center
09:43AM 42.2881 -116.5331 96° East 450 518 33,000  Level Salt Lake Center
09:45AM 42.2769 -116.3728 95° East 450 518 33,000  Level Salt Lake Center
09:46AM 42.2639 -116.2133 96° East 448 516 33,000  Level Salt Lake Center
09:47AM 42.2489 -116.0275 96° East 446 513 33,000  Level Salt Lake Center
09:48AM 42.2350 -115.8681 97° East 447 514 33,000  Level Salt Lake Center
09:49AM 42.2203 -115.6825 96° East 447 514 33,000  Level Salt Lake Center
09:50AM 42.2078 -115.5239 96° East 445 512 33,000  Level Salt Lake Center
09:51AM 42.1939 -115.3644 97° East 447 514 33,000  Level Salt Lake Center
09:52AM 42.1778 -115.1797 97° East 444 511 33,000  Level Salt Lake Center
09:53AM 42.1633 -115.0200 97° East 450 518 33,000  Level Salt Lake Center
09:54AM 42.1478 -114.8408 97° East 448 516 33,000  Level Salt Lake Center
09:55AM 42.1328 -114.6731 97° East 450 518 33,000  Level Salt Lake Center
09:56AM 42.1164 -114.5075 98° East 449 517 33,000  Level Salt Lake Center
09:57AM 42.1006 -114.3431 97° East 446 513 33,000  Level Salt Lake Center
09:58AM 42.0839 -114.1761 98° East 451 519 33,000  Level Salt Lake Center
09:59AM 42.0689 -114.0086 97° East 452 520 33,000  Level Salt Lake Center
10:00AM 42.0483 -113.8033 98° East 459 528 33,000  Level Salt Lake Center
10:01AM 42.0314 -113.6322 98° East 462 532 33,000  Level Salt Lake Center
10:02AM 42.0133 -113.4617 98° East 462 532 33,000  Level Salt Lake Center
10:03AM 41.9839 -113.2967 103° East 456 525 33,000  Level Salt Lake Center
10:04AM 41.9508 -113.1336 105° East 454 522 33,000  Level Salt Lake Center
10:05AM 41.9211 -112.9692 104° East 453 521 33,000  Level Salt Lake Center
10:06AM 41.8881 -112.8067 105° East 452 520 33,000  Level Salt Lake Center
10:07AM 41.8567 -112.6436 104° East 452 520 33,000  Level Salt Lake Center
10:08AM 41.8186 -112.4483 105° East 452 520 33,000  Level Salt Lake Center
10:09AM 41.7889 -112.2875 104° East 447 514 33,000  Level Salt Lake Center
10:10AM 41.7614 -112.1242 103° East 449 517 33,000  Level Salt Lake Center
10:11AM 41.7472 -111.9556 96° East 455 524 33,000  Level Salt Lake Center
10:12AM 41.7319 -111.7864 97° East 456 525 33,000  Level Salt Lake Center
10:13AM 41.7158 -111.6158 97° East 459 528 33,000  Level Salt Lake Center
10:14AM 41.6989 -111.4453 98° East 461 531 33,000  Level Salt Lake Center
10:15AM 41.6831 -111.2739 97° East 462 532 33,000  Level Salt Lake Center
10:16AM 41.6633 -111.0681 97° East 464 534 33,000  Level Salt Lake Center
10:17AM 41.6697 -110.9069 87° East 465 535 33,000  Level Salt Lake Center
10:18AM 41.7256 -110.7583 63° Northeast 466 536 33,000  Level Salt Lake Center
10:19AM 41.7903 -110.5864 63° Northeast 462 532 33,000  Level Salt Lake Center
10:20AM 41.8464 -110.4383 63° Northeast 464 534 33,000  Level Salt Lake Center
10:21AM 41.9053 -110.2636 66° East 461 531 33,000  Level Salt Lake Center
10:23AM 41.9111 -110.0986 87° East 464 534 33,000  Level Salt Lake Center
10:24AM 41.8622 -109.9225 110° East 452 520 33,000  Level Salt Lake Center
10:25AM 41.8125 -109.7772 115° Southeast 448 516 33,000  Level Salt Lake Center
10:26AM 41.7583 -109.6033 113° Southeast 452 520 33,000  Level Salt Lake Center
10:27AM 41.7133 -109.4525 112° Southeast 454 522 33,000  Level Salt Lake Center
10:28AM 41.6689 -109.3008 111° Southeast 454 522 33,000  Level Salt Lake Center
10:29AM 41.6158 -109.1206 111° Southeast 461 531 33,000  Level Salt Lake Center
10:30AM 41.5697 -108.9647 112° Southeast 462 532 33,000  Level Salt Lake Center
10:31AM 41.5236 -108.8103 112° Southeast 462 532 33,000  Level Salt Lake Center
10:32AM 41.4706 -108.6319 112° Southeast 460 529 33,000  Level Salt Lake Center
10:33AM 41.4311 -108.5039 112° Southeast 461 531 33,000  Level Denver Center
10:34AM 41.3717 -108.3297 114° Southeast 462 532 33,000  Level Denver Center
10:35AM 41.3217 -108.1800 114° Southeast 462 532 33,000  Level Denver Center
10:36AM 41.2628 -108.0053 114° Southeast 463 533 33,000  Level Denver Center
10:37AM 41.2122 -107.8569 114° Southeast 461 531 33,000  Level Denver Center
10:38AM 41.1531 -107.6825 114° Southeast 463 533 33,000  Level Denver Center
10:39AM 41.1028 -107.5347 114° Southeast 461 531 33,000  Level Denver Center
10:40AM 41.0428 -107.3625 115° Southeast 459 528 33,000  Level Denver Center
10:41AM 40.9931 -107.2164 114° Southeast 456 525 33,000  Level Denver Center
10:42AM 40.9411 -107.0697 115° Southeast 459 528 33,000  Level Denver Center
10:43AM 40.8817 -106.9000 115° Southeast 457 526 33,000  Level Denver Center
10:44AM 40.8314 -106.7544 114° Southeast 456 525 33,000 -540 Level Denver Center
10:45AM 40.7708 -106.5853 115° Southeast 456 525 31,900 -1,440 Descending Denver Center
10:46AM 40.7206 -106.4431 115° Southeast 451 519 30,100 -1,860 Descending Denver Center
10:47AM 40.6642 -106.2861 115° Southeast 430 495 28,100 -1,860 Descending Denver Center
10:48AM 40.6183 -106.1558 115° Southeast 412 474 26,300 -1,740 Descending Denver Center
10:49AM 40.5711 -106.0267 116° Southeast 395 455 24,500 -1,920 Descending Denver Center
10:50AM 40.5222 -105.8900 115° Southeast 408 470 22,400 -2,040 Descending Denver Center
10:51AM 40.4667 -105.7392 116° Southeast 446 513 20,300 -2,100 Descending Denver Center
10:52AM 40.4139 -105.5950 116° Southeast 444 511 18,100 -1,620 Descending Denver Center
10:53AM 40.3586 -105.4414 115° Southeast 405 466 17,000 -1,080 Descending Denver Center
10:54AM 40.3572 -105.3181 91° East 342 394 15,900 -1,260 Descending Denver Center
10:55AM 40.3564 -105.1958 90° East 317 365 14,500 -1,320 Descending Denver Center
10:56AM 40.3475 -105.0786 96° East 323 372 13,200 -1,020 Descending Denver Center
10:57AM 40.3033 -104.9694 118° Southeast 320 368 12,500 -900 Descending Denver Center
10:59AM 40.2564 -104.8731 123° Southeast 316 364 11,400 -1,020 Descending Denver Center
11:00AM 40.2103 -104.7797 123° Southeast 308 354 10,500 -720 Descending Denver Center
11:01AM 40.1519 -104.6883 130° Southeast 308 354 10,000 -780 Descending Denver Center
11:02AM 40.0739 -104.6850 178° South 281 323 9,000 -1,260 Descending Denver Center
11:03AM 40.0050 -104.6858 181° South 227 261 7,500 -1,500 Descending Denver Center